Time;durP1;ratioP1;P1;durP2;ratioP2;P2;SDS_P1;SDS_P2;PMS_P1;PMS_P2;Temp;Humidity;BMP_temperature;BMP_pressure;BME280_temperature;BME280_humidity;BME280_pressure;Samples;Min_cycle;Max_cycle;Signal;HPM_P1;HPM_P2
2021/11/23 00:01:56;;;;;;;7.40;6.35;;;1.90;13.80;;;;;;5062724;28;20045;-67
2021/11/23 00:04:40;;;;;;;7.88;6.25;;;1.90;12.80;;;;;;5055166;28;20068;-68
2021/11/23 00:07:11;;;;;;;8.30;6.53;;;1.80;13.60;;;;;;5049082;28;20051;-67
2021/11/23 00:09:40;;;;;;;8.48;6.10;;;2.00;12.50;;;;;;5063102;28;20040;-67
2021/11/23 00:12:10;;;;;;;8.13;6.30;;;2.00;12.20;;;;;;5061483;28;20098;-68
2021/11/23 00:14:41;;;;;;;8.27;6.47;;;1.90;12.80;;;;;;5061165;28;20045;-68
2021/11/23 00:17:13;;;;;;;8.25;6.40;;;1.90;13.00;;;;;;5056015;28;20115;-68
2021/11/23 00:19:47;;;;;;;8.73;6.65;;;1.80;13.30;;;;;;4999218;28;20184;-67
2021/11/23 00:22:21;;;;;;;;;;;1.90;13.10;;;;;;5064013;28;20049;-68
2021/11/23 00:24:55;;;;;;;7.20;5.90;;;1.90;13.00;;;;;;5060807;28;19920;-68
2021/11/23 00:27:30;;;;;;;7.82;6.03;;;1.90;12.90;;;;;;5081123;28;20186;-67
2021/11/23 00:30:06;;;;;;;8.45;6.18;;;1.80;13.10;;;;;;5083835;28;20385;-68
2021/11/23 00:32:37;;;;;;;9.93;6.95;;;1.80;13.30;;;;;;5080785;28;20438;-68
2021/11/23 00:35:11;;;;;;;8.50;6.40;;;1.80;13.50;;;;;;5082446;28;20546;-68
2021/11/23 00:37:39;;;;;;;9.30;6.68;;;1.80;13.70;;;;;;5083515;28;20165;-68
2021/11/23 00:40:09;;;;;;;8.15;6.88;;;1.80;13.30;;;;;;5080994;28;20280;-68
2021/11/23 00:42:37;;;;;;;9.18;6.45;;;1.80;13.50;;;;;;5081042;28;20052;-68
2021/11/23 00:45:07;;;;;;;9.88;7.70;;;1.70;14.00;;;;;;5082069;28;20052;-68
2021/11/23 00:47:39;;;;;;;8.90;6.68;;;1.60;13.90;;;;;;5074669;28;20048;-68
2021/11/23 00:50:15;;;;;;;11.50;7.75;;;1.60;14.40;;;;;;5082832;28;20163;-68
2021/11/23 00:52:46;;;;;;;10.38;7.00;;;1.50;14.40;;;;;;5076770;28;20049;-68
2021/11/23 00:55:15;;;;;;;9.18;6.93;;;1.50;15.30;;;;;;5082693;28;20040;-68
2021/11/23 00:57:47;;;;;;;9.32;7.00;;;1.50;15.20;;;;;;5084315;28;20040;-68
2021/11/23 01:00:16;;;;;;;9.23;6.93;;;1.50;15.50;;;;;;5083999;28;20040;-68
2021/11/23 01:02:49;;;;;;;7.90;6.88;;;1.50;15.20;;;;;;5080377;28;20121;-67
2021/11/23 01:05:19;;;;;;;9.40;7.30;;;1.60;14.80;;;;;;5083929;28;20048;-67
2021/11/23 01:07:47;;;;;;;9.43;7.57;;;1.50;15.30;;;;;;5079671;28;20047;-68
2021/11/23 01:10:17;;;;;;;13.45;8.23;;;1.40;15.80;;;;;;5082187;28;20048;-68
2021/11/23 01:12:50;;;;;;;10.65;7.50;;;1.40;16.10;;;;;;5083207;28;20086;-69
2021/11/23 01:15:25;;;;;;;11.60;7.00;;;1.30;16.30;;;;;;5083074;28;20048;-68
2021/11/23 01:17:55;;;;;;;10.15;7.20;;;1.40;16.30;;;;;;5080786;28;20079;-68
2021/11/23 01:20:28;;;;;;;11.52;7.85;;;1.30;16.10;;;;;;5084222;28;20044;-68
2021/11/23 01:22:57;;;;;;;11.70;7.50;;;1.40;16.00;;;;;;5079459;28;20052;-68
2021/11/23 01:25:31;;;;;;;9.45;7.15;;;1.30;15.80;;;;;;5081731;28;20127;-68
2021/11/23 01:27:59;;;;;;;11.07;7.72;;;1.40;15.80;;;;;;5083459;28;20489;-68
2021/11/23 01:30:30;;;;;;;10.38;6.97;;;1.40;15.30;;;;;;5080887;28;20037;-69
2021/11/23 01:32:58;;;;;;;9.75;7.80;;;1.30;15.40;;;;;;5083506;28;20105;-67
2021/11/23 01:35:29;;;;;;;10.27;7.38;;;1.40;15.30;;;;;;5080571;28;20091;-68
2021/11/23 01:37:57;;;;;;;9.88;7.18;;;1.40;15.30;;;;;;5080223;28;20072;-68
2021/11/23 01:40:29;;;;;;;10.43;8.23;;;1.30;15.50;;;;;;5084175;28;20040;-68
2021/11/23 01:42:57;;;;;;;10.18;7.43;;;1.30;16.10;;;;;;5080509;28;20143;-69
2021/11/23 01:45:25;;;;;;;9.25;7.63;;;1.30;15.50;;;;;;5082779;28;20066;-68
2021/11/23 01:47:52;;;;;;;10.77;8.13;;;1.30;15.30;;;;;;5081633;28;20050;-68
2021/11/23 01:50:24;;;;;;;9.70;7.13;;;1.30;15.50;;;;;;5079742;28;20050;-68
2021/11/23 01:52:57;;;;;;;9.98;7.75;;;1.20;15.50;;;;;;5082642;28;20106;-68
2021/11/23 01:55:28;;;;;;;11.18;7.55;;;1.10;16.10;;;;;;5082916;28;20048;-68
2021/11/23 01:57:56;;;;;;;11.70;8.52;;;1.20;16.20;;;;;;5085631;28;20136;-68
2021/11/23 02:00:24;;;;;;;11.50;7.75;;;1.20;15.80;;;;;;5082670;28;20151;-68
2021/11/23 02:02:55;;;;;;;12.00;8.82;;;1.10;15.60;;;;;;5086378;28;20062;-67
2021/11/23 02:05:23;;;;;;;10.20;8.25;;;1.20;16.20;;;;;;5084085;28;20036;-68
2021/11/23 02:07:55;;;;;;;12.18;8.85;;;1.20;16.20;;;;;;5086535;28;20052;-67
2021/11/23 02:10:25;;;;;;;11.50;7.57;;;1.20;15.80;;;;;;5084178;28;20040;-68
2021/11/23 02:12:54;;;;;;;11.60;7.97;;;1.10;15.40;;;;;;5085081;28;20048;-68
2021/11/23 02:15:24;;;;;;;10.50;7.82;;;1.00;16.50;;;;;;5083227;28;20117;-68
2021/11/23 02:17:55;;;;;;;12.18;8.48;;;1.00;17.00;;;;;;5085413;28;20044;-68
2021/11/23 02:20:26;;;;;;;11.40;8.57;;;1.00;17.10;;;;;;5082577;28;20037;-68
2021/11/23 02:22:54;;;;;;;12.77;8.25;;;1.00;17.20;;;;;;5085600;28;20048;-69
2021/11/23 02:25:22;;;;;;;11.70;9.00;;;0.90;17.00;;;;;;5084071;28;20066;-67
2021/11/23 02:27:53;;;;;;;12.27;8.75;;;0.90;17.50;;;;;;5084287;28;20504;-68
2021/11/23 02:30:23;;;;;;;11.63;8.63;;;0.90;17.30;;;;;;5085268;28;20724;-68
2021/11/23 02:32:55;;;;;;;10.75;8.10;;;0.90;17.50;;;;;;5080845;28;20052;-68
2021/11/23 02:35:26;;;;;;;12.00;8.98;;;0.90;17.10;;;;;;5082944;28;20048;-67
2021/11/23 02:37:57;;;;;;;13.20;9.20;;;0.90;17.00;;;;;;5087512;28;20058;-69
2021/11/23 02:40:25;;;;;;;13.35;9.02;;;0.80;17.20;;;;;;5085787;28;20139;-68
2021/11/23 02:42:59;;;;;;;13.35;9.20;;;0.80;17.00;;;;;;5085500;28;20039;-67
2021/11/23 02:45:31;;;;;;;13.45;9.93;;;0.80;17.00;;;;;;5086557;28;20044;-68
2021/11/23 02:48:04;;;;;;;14.38;9.27;;;0.80;17.90;;;;;;5082517;28;20557;-68
2021/11/23 02:50:39;;;;;;;12.02;9.20;;;0.80;17.60;;;;;;5086103;28;20044;-68
2021/11/23 02:53:07;;;;;;;13.25;9.02;;;0.80;17.60;;;;;;5082467;28;20048;-68
2021/11/23 02:55:37;;;;;;;13.25;9.38;;;0.80;17.40;;;;;;5082137;28;20105;-68
2021/11/23 02:58:10;;;;;;;11.75;8.90;;;0.70;17.40;;;;;;5085767;28;20046;-68
2021/11/23 03:00:40;;;;;;;12.07;9.02;;;0.70;17.90;;;;;;5082574;28;20071;-68
2021/11/23 03:03:11;;;;;;;12.63;9.43;;;0.70;18.50;;;;;;5081014;28;20408;-69
2021/11/23 03:05:41;;;;;;;14.68;9.75;;;0.60;18.30;;;;;;5086026;28;20431;-67
2021/11/23 03:08:09;;;;;;;14.07;9.15;;;0.70;18.20;;;;;;5081980;28;20048;-68
2021/11/23 03:10:37;;;;;;;14.93;10.10;;;0.60;17.90;;;;;;5084380;28;20040;-68
2021/11/23 03:13:05;;;;;;;13.52;9.60;;;0.60;18.30;;;;;;5083997;28;20076;-68
2021/11/23 03:15:34;;;;;;;14.45;9.82;;;0.60;18.20;;;;;;5079263;28;20131;-67
2021/11/23 03:18:02;;;;;;;12.77;9.10;;;0.70;18.20;;;;;;5083432;28;20054;-68
2021/11/23 03:20:30;;;;;;;13.32;9.20;;;0.60;18.30;;;;;;5084549;28;20145;-68
2021/11/23 03:23:00;;;;;;;12.85;9.90;;;0.50;18.40;;;;;;5080428;28;20816;-68
2021/11/23 03:25:28;;;;;;;12.30;9.02;;;0.50;18.90;;;;;;5085019;28;20052;-68
2021/11/23 03:27:57;;;;;;;15.45;9.90;;;0.50;19.10;;;;;;5081846;28;20072;-68
2021/11/23 03:30:27;;;;;;;15.27;10.43;;;0.40;19.30;;;;;;5083232;28;20054;-68
2021/11/23 03:33:07;;;;;;;12.75;9.63;;;0.40;20.00;;;;;;5078721;28;20040;-67
2021/11/23 03:35:37;;;;;;;16.65;10.65;;;0.50;19.90;;;;;;5078239;28;20490;-68
2021/11/23 03:38:08;;;;;;;15.25;10.38;;;0.50;19.60;;;;;;5082898;28;20071;-67
2021/11/23 03:40:37;;;;;;;13.35;10.15;;;0.40;19.50;;;;;;5083875;28;20464;-68
2021/11/23 03:43:13;;;;;;;12.93;9.90;;;0.50;19.30;;;;;;5079597;28;20399;-68
2021/11/23 03:45:45;;;;;;;16.10;10.55;;;0.40;20.00;;;;;;5080088;28;20048;-69
2021/11/23 03:48:13;;;;;;;14.98;10.23;;;0.40;19.60;;;;;;5081983;28;20101;-68
2021/11/23 03:50:46;;;;;;;15.57;11.23;;;0.50;19.70;;;;;;5079076;28;20044;-67
2021/11/23 03:53:17;;;;;;;16.45;10.80;;;0.40;19.60;;;;;;5083653;28;20052;-69
2021/11/23 03:55:49;;;;;;;15.95;10.63;;;0.40;20.60;;;;;;5083894;28;20442;-69
2021/11/23 03:58:18;;;;;;;17.17;11.18;;;0.50;19.70;;;;;;5081579;28;20055;-67
2021/11/23 04:00:49;;;;;;;14.43;10.35;;;0.40;19.80;;;;;;5084711;28;20086;-68
2021/11/23 04:03:17;;;;;;;15.20;10.07;;;0.30;20.10;;;;;;5057326;28;20132;-66
2021/11/23 04:05:45;;;;;;;14.52;10.55;;;0.30;20.10;;;;;;5080276;28;20068;-67
2021/11/23 04:08:20;;;;;;;16.30;11.40;;;0.20;20.60;;;;;;5078840;28;20052;-68
2021/11/23 04:10:51;;;;;;;18.75;11.07;;;0.20;21.30;;;;;;5082101;28;20566;-66
2021/11/23 04:13:19;;;;;;;16.60;11.00;;;0.10;21.30;;;;;;5076627;28;20072;-67
2021/11/23 04:15:50;;;;;;;14.80;10.43;;;0.10;21.80;;;;;;5085088;28;20327;-67
2021/11/23 04:18:19;;;;;;;17.13;11.60;;;0.00;22.20;;;;;;5078278;28;20040;-68
2021/11/23 04:20:47;;;;;;;16.38;10.88;;;0.10;22.90;;;;;;5079746;28;20124;-67
2021/11/23 04:23:15;;;;;;;16.95;11.70;;;0.10;22.90;;;;;;5056907;28;20579;-68
2021/11/23 04:25:45;;;;;;;16.23;11.15;;;0.00;22.90;;;;;;5076782;28;20135;-66
2021/11/23 04:28:13;;;;;;;16.90;11.00;;;0.00;23.20;;;;;;5081427;28;20044;-67
2021/11/23 04:30:41;;;;;;;16.23;10.85;;;0.00;23.20;;;;;;5079328;28;20494;-67
2021/11/23 04:33:13;;;;;;;16.17;11.38;;;0.00;23.30;;;;;;5079569;28;20110;-67
2021/11/23 04:35:46;;;;;;;15.02;11.02;;;0.00;23.20;;;;;;5084888;28;21161;-67
2021/11/23 04:38:14;;;;;;;14.65;10.70;;;0.00;23.20;;;;;;5076231;28;20124;-67
2021/11/23 04:40:42;;;;;;;17.27;11.60;;;0.00;23.00;;;;;;5079973;28;20059;-67
2021/11/23 04:43:20;;;;;;;15.57;10.93;;;-0.10;22.10;;;;;;5077720;28;20056;-68
2021/11/23 04:45:48;;;;;;;13.35;9.88;;;-0.10;23.00;;;;;;5079378;28;20526;-68
2021/11/23 04:48:20;;;;;;;16.15;9.77;;;-0.20;22.80;;;;;;5084235;28;20106;-69
2021/11/23 04:50:47;;;;;;;13.57;9.95;;;-0.30;24.10;;;;;;5080544;28;20048;-67
2021/11/23 04:53:16;;;;;;;15.27;9.30;;;-0.30;24.80;;;;;;5081182;28;20060;-67
2021/11/23 04:55:46;;;;;;;15.75;10.85;;;-0.30;24.80;;;;;;5083218;28;20040;-68
2021/11/23 04:58:16;;;;;;;15.98;10.15;;;-0.30;25.50;;;;;;5083211;28;20055;-67
2021/11/23 05:00:47;;;;;;;13.20;9.48;;;-0.30;25.40;;;;;;5079851;28;20889;-67
2021/11/23 05:03:21;;;;;;;16.42;10.10;;;-0.40;25.60;;;;;;5081090;28;20192;-68
2021/11/23 05:05:53;;;;;;;16.20;10.35;;;-0.40;25.80;;;;;;5083930;28;20040;-68
2021/11/23 05:08:23;;;;;;;14.73;10.15;;;-0.40;25.80;;;;;;5082431;28;20043;-68
2021/11/23 05:10:55;;;;;;;14.63;9.70;;;-0.40;26.30;;;;;;5080541;28;20048;-67
2021/11/23 05:13:24;;;;;;;14.20;9.85;;;-0.40;26.10;;;;;;5080977;28;20052;-68
2021/11/23 05:15:56;;;;;;;14.70;10.35;;;-0.50;26.30;;;;;;5066554;28;20052;-67
2021/11/23 05:18:24;;;;;;;14.82;9.60;;;-0.50;26.20;;;;;;5063395;28;20143;-68
2021/11/23 05:20:56;;;;;;;15.38;9.63;;;-0.60;26.20;;;;;;5060945;28;20428;-67
2021/11/23 05:23:29;;;;;;;13.88;10.20;;;-0.60;27.80;;;;;;5057207;28;20040;-67
2021/11/23 05:25:58;;;;;;;16.35;10.38;;;-0.50;27.30;;;;;;5064287;28;20044;-67
2021/11/23 05:28:28;;;;;;;15.98;10.25;;;-0.60;27.10;;;;;;5061462;28;20076;-67
2021/11/23 05:30:57;;;;;;;15.98;10.63;;;-0.50;27.10;;;;;;5081351;28;20036;-67
2021/11/23 05:33:31;;;;;;;15.50;10.70;;;-0.60;27.90;;;;;;5072544;28;20041;-65
2021/11/23 05:35:59;;;;;;;16.30;9.90;;;-0.50;27.60;;;;;;5064066;28;20076;-66
2021/11/23 05:38:27;;;;;;;15.73;10.45;;;-0.50;27.30;;;;;;5062970;28;20128;-67
2021/11/23 05:41:00;;;;;;;15.02;10.23;;;-0.60;27.20;;;;;;5064182;28;20059;-67
2021/11/23 05:43:28;;;;;;;12.45;9.27;;;-0.70;27.70;;;;;;5081007;28;20076;-67
2021/11/23 05:46:02;;;;;;;16.48;11.07;;;-0.80;28.50;;;;;;5086044;28;20040;-67
2021/11/23 05:48:36;;;;;;;16.95;11.07;;;-0.70;28.30;;;;;;5087306;28;20059;-67
2021/11/23 05:51:12;;;;;;;;;;;-0.80;28.30;;;;;;5081651;28;20515;-68
2021/11/23 05:53:41;;;;;;;17.90;10.70;;;-0.80;29.40;;;;;;5080549;28;20386;-67
2021/11/23 05:56:17;;;;;;;15.25;10.45;;;-0.80;29.40;;;;;;5082364;28;20068;-67
2021/11/23 05:58:50;;;;;;;16.90;9.83;;;-0.90;29.90;;;;;;5086309;28;20136;-67
2021/11/23 06:01:21;;;;;;;17.75;10.55;;;-0.90;29.60;;;;;;5083870;28;20332;-67
2021/11/23 06:03:50;;;;;;;14.55;9.52;;;-0.90;30.40;;;;;;5083459;28;20044;-67
2021/11/23 06:06:24;;;;;;;;;;;-0.80;30.70;;;;;;5083861;28;20392;-67
2021/11/23 06:08:57;;;;;;;15.07;9.77;;;-0.80;29.70;;;;;;5083636;28;19948;-66
2021/11/23 06:11:27;;;;;;;15.73;9.95;;;-0.80;29.70;;;;;;5083590;28;20072;-67
2021/11/23 06:13:57;;;;;;;19.13;10.43;;;-0.80;29.40;;;;;;5084525;28;20538;-67
2021/11/23 06:16:34;;;;;;;15.40;10.30;;;-0.80;29.40;;;;;;5064908;28;20394;-68
2021/11/23 06:19:05;;;;;;;16.13;10.18;;;-0.80;29.60;;;;;;5063874;28;20291;-68
2021/11/23 06:21:33;;;;;;;16.05;10.70;;;-0.90;29.50;;;;;;5063909;28;20067;-67
2021/11/23 06:24:07;;;;;;;17.15;11.02;;;-0.90;29.70;;;;;;5060378;28;20041;-67
2021/11/23 06:26:35;;;;;;;18.20;11.45;;;-0.90;30.70;;;;;;5065454;28;20523;-67
2021/11/23 06:29:04;;;;;;;14.38;9.82;;;-0.80;30.60;;;;;;5063742;28;20049;-67
2021/11/23 06:31:37;;;;;;;17.27;11.55;;;-0.80;29.80;;;;;;5082788;28;20489;-68
2021/11/23 06:34:07;;;;;;;18.25;11.15;;;-0.80;30.00;;;;;;5084075;28;20635;-67
2021/11/23 06:36:35;;;;;;;17.27;10.52;;;-0.80;29.40;;;;;;5082245;28;20044;-67
2021/11/23 06:39:05;;;;;;;18.55;11.02;;;-0.80;29.40;;;;;;5085534;28;20618;-66
2021/11/23 06:41:36;;;;;;;18.55;10.50;;;-0.80;29.40;;;;;;5085211;28;20604;-67
2021/11/23 06:44:07;;;;;;;16.73;9.90;;;-0.80;29.40;;;;;;5080762;28;20157;-67
2021/11/23 06:46:43;;;;;;;16.85;9.98;;;-0.80;29.40;;;;;;5085609;28;20040;-66
2021/11/23 06:49:11;;;;;;;18.35;10.38;;;-0.80;29.40;;;;;;5082560;28;20093;-67
2021/11/23 06:51:39;;;;;;;18.83;11.70;;;-0.80;29.40;;;;;;5084111;28;20042;-67
2021/11/23 06:54:08;;;;;;;20.67;11.38;;;-0.80;29.30;;;;;;5084214;28;20056;-67
2021/11/23 06:56:38;;;;;;;19.95;11.77;;;-0.80;29.40;;;;;;5082065;28;20955;-68
2021/11/23 06:59:13;;;;;;;18.48;11.48;;;-0.80;29.40;;;;;;5080111;28;20041;-66
2021/11/23 07:01:47;;;;;;;16.42;11.05;;;-0.80;29.40;;;;;;5082396;28;20091;-67
2021/11/23 07:04:15;;;;;;;21.48;12.65;;;-0.70;29.90;;;;;;5081337;28;20083;-66
2021/11/23 07:06:45;;;;;;;17.95;11.20;;;-0.70;29.40;;;;;;5080319;28;20036;-67
2021/11/23 07:09:15;;;;;;;19.52;10.77;;;-0.70;29.40;;;;;;5084207;28;20747;-66
2021/11/23 07:11:44;;;;;;;18.35;10.95;;;-0.60;29.50;;;;;;5083942;28;20040;-66
2021/11/23 07:14:16;;;;;;;19.08;10.85;;;-0.60;29.50;;;;;;5081415;28;20036;-67
2021/11/23 07:16:44;;;;;;;19.60;10.75;;;-0.60;29.10;;;;;;5081403;28;21260;-66
2021/11/23 07:19:13;;;;;;;19.52;12.23;;;-0.50;29.10;;;;;;5083970;28;20402;-66
2021/11/23 07:21:42;;;;;;;18.40;10.50;;;-0.40;28.40;;;;;;5077599;28;20133;-67
2021/11/23 07:24:15;;;;;;;19.10;11.48;;;-0.40;27.80;;;;;;5079730;28;20040;-67
2021/11/23 07:26:48;;;;;;;17.20;10.70;;;-0.30;27.90;;;;;;5084751;28;20117;-67
2021/11/23 07:29:16;;;;;;;18.77;11.23;;;-0.30;26.60;;;;;;5080634;28;20036;-65
2021/11/23 07:31:49;;;;;;;16.85;10.85;;;-0.30;26.40;;;;;;5085034;28;20517;-67
2021/11/23 07:34:20;;;;;;;18.33;11.38;;;-0.30;26.20;;;;;;5079386;28;20065;-67
2021/11/23 07:36:54;;;;;;;18.80;12.18;;;-0.30;25.80;;;;;;5082538;28;20136;-67
2021/11/23 07:39:23;;;;;;;17.15;10.80;;;-0.20;25.50;;;;;;5083586;28;20446;-65
2021/11/23 07:41:51;;;;;;;16.48;10.32;;;-0.10;25.10;;;;;;5077947;28;20119;-66
2021/11/23 07:44:19;;;;;;;17.77;10.52;;;-0.10;24.70;;;;;;5083448;28;20052;-67
2021/11/23 07:46:51;;;;;;;21.27;11.95;;;-0.10;23.90;;;;;;5084133;28;20039;-68
2021/11/23 07:49:21;;;;;;;16.83;11.02;;;0.00;24.10;;;;;;5080179;28;20074;-69
2021/11/23 07:51:52;;;;;;;18.77;10.77;;;0.10;23.30;;;;;;5082747;28;20101;-67
2021/11/23 07:54:20;;;;;;;17.35;10.70;;;0.10;22.50;;;;;;5081680;28;20392;-68
2021/11/23 07:56:49;;;;;;;17.08;10.75;;;0.10;22.60;;;;;;5081184;28;20062;-67
2021/11/23 07:59:17;;;;;;;17.63;10.32;;;0.20;22.30;;;;;;5082868;28;20044;-66
2021/11/23 08:01:48;;;;;;;23.23;11.85;;;0.10;22.50;;;;;;5082569;28;20542;-67
2021/11/23 08:04:23;;;;;;;18.52;11.32;;;0.20;21.80;;;;;;5078324;28;20127;-67
2021/11/23 08:06:55;;;;;;;19.70;11.52;;;0.20;20.00;;;;;;5083418;28;20044;-68
2021/11/23 08:09:27;;;;;;;16.60;10.95;;;0.20;21.10;;;;;;5056207;28;20115;-67
2021/11/23 08:11:55;;;;;;;28.00;10.73;;;0.30;20.20;;;;;;5083027;28;20044;-67
2021/11/23 08:14:25;;;;;;;20.60;12.00;;;0.40;19.90;;;;;;5078845;28;20272;-67
2021/11/23 08:16:58;;;;;;;20.02;11.85;;;0.40;19.20;;;;;;5083080;28;20522;-66
2021/11/23 08:19:47;;;;;;;18.90;11.20;;;0.50;19.20;;;;;;5083463;28;20050;-66
2021/11/23 08:22:15;;;;;;;15.93;10.32;;;0.50;18.70;;;;;;5081315;28;20572;-67
2021/11/23 08:24:45;;;;;;;17.08;10.45;;;0.60;18.00;;;;;;5081953;28;20834;-67
2021/11/23 08:27:18;;;;;;;18.25;11.13;;;0.50;17.90;;;;;;5080954;28;20040;-67
2021/11/23 08:29:51;;;;;;;15.57;10.20;;;0.60;17.90;;;;;;5082289;28;20051;-67
2021/11/23 08:32:19;;;;;;;18.02;11.27;;;0.60;18.00;;;;;;5084698;28;20043;-68
2021/11/23 08:34:49;;;;;;;16.85;11.25;;;0.60;17.70;;;;;;5077406;28;20119;-67
2021/11/23 08:37:19;;;;;;;16.38;10.52;;;0.70;17.00;;;;;;5083075;28;20047;-67
2021/11/23 08:39:47;;;;;;;15.75;10.50;;;0.80;16.70;;;;;;5081019;28;20040;-67
2021/11/23 08:42:20;;;;;;;18.45;11.07;;;0.80;16.00;;;;;;5081250;28;20044;-67
2021/11/23 08:44:52;;;;;;;16.50;10.02;;;0.90;15.50;;;;;;5082779;28;20040;-67
2021/11/23 08:47:23;;;;;;;20.13;11.20;;;1.00;14.60;;;;;;5081750;28;20105;-66
2021/11/23 08:49:56;;;;;;;17.27;10.88;;;1.00;13.80;;;;;;5080900;28;20696;-67
2021/11/23 08:52:27;;;;;;;16.42;11.23;;;1.10;14.60;;;;;;5083331;28;20109;-67
2021/11/23 08:54:59;;;;;;;18.83;10.77;;;1.10;13.60;;;;;;5062118;28;20116;-67
2021/11/23 08:57:28;;;;;;;15.05;10.23;;;1.10;13.10;;;;;;5080305;28;20043;-67
2021/11/23 09:00:14;;;;;;;20.70;10.68;;;1.20;13.70;;;;;;5084158;28;20047;-66
2021/11/23 09:02:44;;;;;;;14.52;10.18;;;1.30;12.50;;;;;;5081140;28;20492;-68
2021/11/23 09:05:18;;;;;;;16.88;10.93;;;1.30;11.80;;;;;;5078847;28;20048;-67
2021/11/23 09:07:45;;;;;;;17.40;10.10;;;1.30;11.80;;;;;;5086899;28;20048;-67
2021/11/23 09:10:22;;;;;;;15.73;9.10;;;1.40;11.60;;;;;;5064228;28;20039;-67
2021/11/23 09:12:54;;;;;;;14.73;9.40;;;1.40;10.50;;;;;;5064026;28;20032;-67
2021/11/23 09:15:22;;;;;;;14.95;10.10;;;1.60;10.40;;;;;;5065688;28;20120;-67
2021/11/23 09:17:55;;;;;;;16.63;10.35;;;1.50;10.50;;;;;;5065297;28;20064;-67
2021/11/23 09:20:35;;;;;;;14.25;9.73;;;1.70;9.70;;;;;;5063479;28;20101;-67
2021/11/23 09:23:11;;;;;;;16.30;10.35;;;1.80;9.80;;;;;;5058364;28;20048;-67
2021/11/23 09:25:43;;;;;;;15.15;9.45;;;1.70;9.40;;;;;;5081859;28;20487;-66
2021/11/23 09:28:12;;;;;;;26.75;11.07;;;1.90;9.30;;;;;;5086072;28;20750;-67
2021/11/23 09:30:40;;;;;;;14.90;9.68;;;1.90;8.20;;;;;;5086203;28;20136;-67
2021/11/23 09:33:10;;;;;;;16.02;10.30;;;1.80;9.60;;;;;;5084443;28;20036;-67
2021/11/23 09:35:44;;;;;;;14.43;10.48;;;1.80;8.50;;;;;;5086107;28;20043;-68
2021/11/23 09:38:18;;;;;;;20.85;10.75;;;2.00;8.30;;;;;;5084996;28;20510;-68
2021/11/23 09:40:46;;;;;;;15.13;10.60;;;2.10;7.70;;;;;;5084189;28;20051;-68
2021/11/23 09:43:17;;;;;;;17.27;10.05;;;2.20;7.30;;;;;;5085574;28;20127;-67
2021/11/23 09:45:45;;;;;;;14.52;10.15;;;2.30;7.20;;;;;;5083083;28;20044;-68
2021/11/23 09:48:13;;;;;;;17.63;10.52;;;2.40;7.30;;;;;;5083540;28;20503;-68
2021/11/23 09:50:43;;;;;;;14.32;10.02;;;2.40;6.80;;;;;;5087225;28;20044;-68
2021/11/23 09:53:11;;;;;;;13.18;9.50;;;2.50;6.60;;;;;;5077357;28;20411;-67
2021/11/23 09:55:41;;;;;;;15.27;9.32;;;2.50;5.50;;;;;;5083655;28;20047;-67
2021/11/23 09:58:10;;;;;;;15.40;10.48;;;2.60;5.50;;;;;;5085373;28;20086;-67
2021/11/23 10:00:45;;;;;;;14.20;8.65;;;2.80;5.20;;;;;;5084096;28;20061;-68
2021/11/23 10:03:15;;;;;;;13.15;8.55;;;2.90;5.00;;;;;;5085040;28;20403;-68
2021/11/23 10:05:50;;;;;;;13.13;9.20;;;2.90;3.20;;;;;;5083787;28;20127;-67
2021/11/23 10:08:21;;;;;;;10.90;8.50;;;3.00;3.50;;;;;;5086340;28;20437;-66
2021/11/23 10:10:53;;;;;;;12.18;7.40;;;3.00;1.70;;;;;;5084731;28;20040;-68
2021/11/23 10:13:38;;;;;;;;;;;3.20;1.60;;;;;;5084393;28;20048;-68
2021/11/23 10:16:07;;;;;;;10.85;6.95;;;3.10;1.00;;;;;;5086424;28;19924;-67
2021/11/23 10:18:51;;;;;;;10.25;6.75;;;3.30;1.00;;;;;;5082963;28;20052;-67
2021/11/23 10:21:26;;;;;;;11.82;7.47;;;3.20;1.00;;;;;;5086871;28;20047;-67
2021/11/23 10:24:01;;;;;;;10.95;7.65;;;3.20;1.00;;;;;;5084106;28;20051;-68
2021/11/23 10:26:30;;;;;;;9.50;6.97;;;3.20;1.00;;;;;;5083972;28;20036;-67
2021/11/23 10:29:04;;;;;;;11.10;7.43;;;3.40;1.00;;;;;;5084626;28;20396;-66
2021/11/23 10:31:41;;;;;;;10.00;7.13;;;3.50;1.00;;;;;;5084840;28;20040;-67
2021/11/23 10:34:12;;;;;;;9.57;6.90;;;3.50;1.00;;;;;;5079905;28;20166;-67
2021/11/23 10:36:47;;;;;;;10.13;6.63;;;3.60;1.00;;;;;;5078289;28;20371;-67
2021/11/23 10:39:20;;;;;;;10.43;7.18;;;3.60;1.00;;;;;;5086439;28;20495;-68
2021/11/23 10:42:04;;;;;;;11.27;7.13;;;3.60;1.00;;;;;;5080900;28;20048;-67
2021/11/23 10:44:36;;;;;;;10.93;6.78;;;3.80;1.00;;;;;;5078995;28;20039;-67
2021/11/23 10:47:10;;;;;;;11.13;7.40;;;3.90;1.00;;;;;;5084735;28;20048;-67
2021/11/23 10:49:44;;;;;;;9.55;6.35;;;3.90;1.00;;;;;;5081473;28;20403;-67
2021/11/23 10:52:26;;;;;;;9.05;6.72;;;4.00;1.00;;;;;;5081917;28;20040;-66
2021/11/23 10:54:55;;;;;;;11.50;7.20;;;4.00;1.00;;;;;;5075799;28;20185;-68
2021/11/23 10:57:36;;;;;;;9.98;7.15;;;4.10;1.00;;;;;;5083948;27;20050;-68
2021/11/23 11:00:05;;;;;;;7.90;5.97;;;4.10;1.00;;;;;;5079412;28;20087;-67
2021/11/23 11:02:39;;;;;;;11.77;6.85;;;4.00;1.00;;;;;;5081054;28;20048;-67
2021/11/23 11:05:14;;;;;;;11.25;5.82;;;4.10;1.00;;;;;;5079741;28;20052;-70
2021/11/23 11:07:47;;;;;;;7.93;5.85;;;4.20;1.00;;;;;;5086104;28;20052;-68
2021/11/23 11:10:17;;;;;;;8.70;5.88;;;4.20;1.00;;;;;;5083719;28;20507;-67
2021/11/23 11:12:45;;;;;;;7.93;5.68;;;4.30;1.00;;;;;;5083348;28;20143;-66
2021/11/23 11:15:19;;;;;;;10.38;5.75;;;4.30;1.00;;;;;;5079922;28;20045;-67
2021/11/23 11:17:51;;;;;;;9.30;5.60;;;4.40;1.00;;;;;;5081145;28;20464;-67
2021/11/23 11:20:35;;;;;;;7.88;6.03;;;4.50;1.00;;;;;;5080192;28;20060;-67
2021/11/23 11:23:10;;;;;;;8.73;5.43;;;4.60;1.00;;;;;;5083638;28;20125;-66
2021/11/23 11:25:54;;;;;;;9.35;6.32;;;4.60;1.00;;;;;;5079064;28;20127;-68
2021/11/23 11:28:38;;;;;;;6.35;5.22;;;4.70;1.00;;;;;;5082422;28;20075;-68
2021/11/23 11:31:33;;;;;;;7.90;4.97;;;4.50;1.00;;;;;;5083507;28;20040;-67
2021/11/23 11:34:25;;;;;;;8.25;5.25;;;4.60;1.00;;;;;;5081054;28;20542;-67
2021/11/23 11:37:11;;;;;;;8.38;5.53;;;4.60;1.00;;;;;;5082609;28;20048;-67
2021/11/23 11:40:03;;;;;;;6.90;5.45;;;4.70;1.00;;;;;;5080381;28;20040;-67
2021/11/23 11:43:01;;;;;;;7.40;5.57;;;4.70;1.00;;;;;;5083305;28;20145;-67
2021/11/23 11:45:44;;;;;;;7.07;5.28;;;4.70;1.00;;;;;;5082326;28;20032;-68
2021/11/23 11:48:44;;;;;;;8.60;6.10;;;4.90;1.00;;;;;;5082895;28;20169;-68
2021/11/23 11:51:27;;;;;;;7.47;5.47;;;5.00;1.00;;;;;;5080988;28;20360;-67
2021/11/23 11:53:56;;;;;;;7.32;5.05;;;4.90;1.00;;;;;;5081581;28;20087;-67
2021/11/23 11:56:45;;;;;;;6.22;5.05;;;5.00;1.00;;;;;;5083621;28;20083;-68
2021/11/23 11:59:31;;;;;;;7.55;5.18;;;5.00;1.00;;;;;;5082535;28;20059;-66
2021/11/23 12:02:12;;;;;;;6.60;4.80;;;5.10;1.00;;;;;;5085876;28;20056;-66
2021/11/23 12:04:58;;;;;;;6.80;4.50;;;5.10;1.00;;;;;;5080596;28;20109;-67
2021/11/23 12:07:38;;;;;;;6.07;4.70;;;5.10;1.00;;;;;;5076972;28;20060;-66
2021/11/23 12:10:18;;;;;;;6.47;5.00;;;5.20;1.00;;;;;;5081439;28;20102;-68
2021/11/23 12:13:10;;;;;;;7.45;4.55;;;5.30;1.00;;;;;;5083662;28;20055;-68
2021/11/23 12:15:51;;;;;;;7.00;4.70;;;5.20;1.00;;;;;;5078151;28;20051;-68
2021/11/23 12:18:58;;;;;;;6.72;4.30;;;5.40;1.00;;;;;;5081102;28;20036;-67
2021/11/23 12:21:33;;;;;;;5.38;4.15;;;5.30;1.00;;;;;;5072476;28;20048;-67
2021/11/23 12:24:05;;;;;;;4.90;3.70;;;5.30;1.00;;;;;;5076805;28;20051;-68
2021/11/23 12:26:37;;;;;;;6.22;3.42;;;5.30;1.00;;;;;;5079676;28;20119;-66
2021/11/23 12:29:12;;;;;;;5.40;3.28;;;5.40;1.00;;;;;;5079829;28;20155;-68
2021/11/23 12:31:46;;;;;;;4.68;3.63;;;5.40;1.00;;;;;;5083018;28;20040;-67
2021/11/23 12:34:15;;;;;;;4.78;3.10;;;5.50;1.00;;;;;;5078012;28;20036;-68
2021/11/23 12:36:49;;;;;;;6.75;2.90;;;5.60;1.00;;;;;;5082562;28;20133;-68
2021/11/23 12:39:21;;;;;;;5.20;2.80;;;5.60;1.00;;;;;;5076470;28;20321;-66
2021/11/23 12:41:58;;;;;;;3.30;2.40;;;5.60;1.00;;;;;;5083583;28;20064;-68
2021/11/23 12:44:34;;;;;;;3.05;2.42;;;5.60;1.00;;;;;;5080509;28;20128;-67
2021/11/23 12:47:06;;;;;;;3.20;2.60;;;5.60;1.00;;;;;;5081437;28;20052;-68
2021/11/23 12:49:38;;;;;;;2.83;2.13;;;5.70;1.00;;;;;;5080781;28;20047;-67
2021/11/23 12:52:10;;;;;;;3.58;2.13;;;5.70;1.00;;;;;;5082831;28;20046;-67
2021/11/23 12:54:40;;;;;;;3.85;2.70;;;5.70;1.00;;;;;;5076316;28;20036;-67
2021/11/23 12:57:13;;;;;;;4.05;2.38;;;5.80;1.00;;;;;;5064949;28;20040;-67
2021/11/23 12:59:46;;;;;;;3.97;2.53;;;5.80;1.00;;;;;;5077066;28;20063;-67
2021/11/23 13:02:32;;;;;;;2.30;1.98;;;5.80;1.00;;;;;;5079470;28;20056;-67
2021/11/23 13:05:04;;;;;;;2.92;2.40;;;5.80;1.00;;;;;;5077219;28;20054;-66
2021/11/23 13:07:37;;;;;;;3.67;2.70;;;5.80;1.00;;;;;;5082374;28;20151;-68
2021/11/23 13:10:11;;;;;;;4.85;3.05;;;5.80;1.00;;;;;;5078123;28;20048;-68
2021/11/23 13:12:41;;;;;;;3.20;2.65;;;5.90;1.00;;;;;;5079803;28;20054;-67
2021/11/23 13:15:19;;;;;;;3.70;2.65;;;5.90;1.00;;;;;;5078864;28;20052;-68